Time;durP1;ratioP1;P1;durP2;ratioP2;P2;SDS_P1;SDS_P2;PMS_P1;PMS_P2;Temp;Humidity;BMP_temperature;BMP_pressure;BME280_temperature;BME280_humidity;BME280_pressure;Samples;Min_cycle;Max_cycle;Signal;HPM_P1;HPM_P2
2022/09/09 00:00:19;;;;;;;7.03;1.40;;;14.70;99.90;;;;;;4949463;28;20460;-84
2022/09/09 00:02:58;;;;;;;5.90;1.60;;;15.50;99.90;;;;;;4961544;28;20443;-83
2022/09/09 00:05:48;;;;;;;4.13;1.80;;;15.00;99.90;;;;;;4946988;28;20533;-86
2022/09/09 00:08:37;;;;;;;5.93;1.53;;;15.10;99.90;;;;;;4962020;28;21200;-86
2022/09/09 00:11:05;;;;;;;4.57;1.60;;;15.20;99.90;;;;;;4963078;28;20565;-85
2022/09/09 00:13:53;;;;;;;4.40;1.23;;;15.30;99.90;;;;;;4961086;28;20444;-85
2022/09/09 00:16:31;;;;;;;14.03;2.10;;;15.50;99.90;;;;;;4949639;28;20580;-84
2022/09/09 00:19:39;;;;;;;4.77;1.97;;;15.50;99.90;;;;;;4961266;28;20516;-88
2022/09/09 00:22:18;;;;;;;2.63;1.40;;;15.30;99.90;;;;;;4953264;28;20454;-87
2022/09/09 00:24:53;;;;;;;4.00;2.00;;;15.10;99.90;;;;;;4963827;28;20923;-85
2022/09/09 00:27:41;;;;;;;6.80;2.03;;;15.00;99.90;;;;;;4952750;28;20431;-86
2022/09/09 00:30:25;;;;;;;3.57;2.20;;;14.90;99.90;;;;;;4970790;28;21186;-85
2022/09/09 00:33:00;;;;;;;4.43;1.70;;;14.80;99.90;;;;;;4948654;28;20490;-86
2022/09/09 00:35:34;;;;;;;6.73;1.77;;;14.90;99.90;;;;;;4967828;28;20939;-87
2022/09/09 00:38:34;;;;;;;3.60;1.70;;;14.90;99.90;;;;;;4956538;28;20442;-87
2022/09/09 00:41:17;;;;;;;2.33;1.23;;;14.80;99.90;;;;;;4968509;28;20485;-86
2022/09/09 00:44:00;;;;;;;3.07;1.27;;;15.00;99.90;;;;;;4950821;28;20434;-87
2022/09/09 00:46:28;;;;;;;5.30;1.13;;;16.40;99.90;;;;;;4965934;28;20441;-88
2022/09/09 00:48:54;;;;;;;3.43;1.30;;;15.40;99.90;;;;;;4948407;28;20440;-86
2022/09/09 00:51:46;;;;;;;3.47;1.40;;;15.60;99.90;;;;;;4966481;28;20982;-85
2022/09/09 00:54:41;;;;;;;3.30;1.30;;;15.70;99.90;;;;;;4962686;28;20936;-86
2022/09/09 00:57:24;;;;;;;4.27;1.30;;;15.80;99.90;;;;;;4963218;28;20519;-84
2022/09/09 01:00:20;;;;;;;6.73;2.03;;;15.80;99.90;;;;;;4949815;28;21105;-86
2022/09/09 01:03:24;;;;;;;4.13;2.00;;;15.70;99.90;;;;;;4968748;23;20593;-90
2022/09/09 01:06:15;;;;;;;4.50;2.37;;;15.40;99.90;;;;;;4968875;28;20447;-91
2022/09/09 01:09:23;;;;;;;4.53;1.60;;;15.30;99.90;;;;;;4986158;28;20435;-90
2022/09/09 01:11:59;;;;;;;5.30;1.90;;;15.30;99.90;;;;;;4970979;28;20455;-90
2022/09/09 01:14:35;;;;;;;1.80;1.30;;;15.40;99.90;;;;;;4970399;28;20434;-90
2022/09/09 01:17:18;;;;;;;3.83;1.40;;;15.50;99.90;;;;;;4952523;28;20907;-89
2022/09/09 01:19:44;;;;;;;4.73;1.80;;;15.70;99.90;;;;;;4941794;28;20450;-90
2022/09/09 01:22:47;;;;;;;3.50;1.40;;;15.70;99.90;;;;;;4950955;28;20472;-90
2022/09/09 01:25:44;;;;;;;2.63;1.37;;;15.70;99.90;;;;;;4942402;28;20282;-86
2022/09/09 01:28:21;;;;;;;12.17;1.97;;;15.80;99.90;;;;;;4952251;28;20450;-85
2022/09/09 01:30:47;;;;;;;3.03;2.27;;;15.80;99.90;;;;;;4937809;28;20461;-87
2022/09/09 01:33:16;;;;;;;4.23;1.73;;;15.60;99.90;;;;;;4958162;28;20472;-87
2022/09/09 01:35:57;;;;;;;3.73;1.63;;;16.30;99.90;;;;;;4953248;28;20506;-86
2022/09/09 01:38:24;;;;;;;3.17;1.30;;;15.10;99.90;;;;;;4947450;28;20439;-87
2022/09/09 01:40:54;;;;;;;5.87;2.77;;;14.90;99.90;;;;;;4958622;28;20443;-83
2022/09/09 01:43:21;;;;;;;5.00;1.80;;;14.90;99.90;;;;;;4948899;28;20558;-85
2022/09/09 01:45:49;;;;;;;6.67;1.40;;;14.90;99.90;;;;;;4946886;28;20442;-85
2022/09/09 01:48:16;;;;;;;7.10;3.37;;;15.40;99.90;;;;;;4938175;28;21004;-87
2022/09/09 01:50:41;;;;;;;130.37;19.53;;;15.90;99.90;;;;;;4950693;28;20482;-84
2022/09/09 01:53:07;;;;;;;77.20;45.63;;;15.30;99.90;;;;;;4935168;28;20471;-83
2022/09/09 01:55:41;;;;;;;2.70;1.20;;;15.40;99.90;;;;;;4952562;28;20339;-84
2022/09/09 01:58:26;;;;;;;163.57;15.30;;;16.30;99.90;;;;;;4957819;28;20475;-86
2022/09/09 02:01:07;;;;;;;1864.27;197.90;;;15.80;99.90;;;;;;4952067;28;20442;-86
2022/09/09 02:03:34;;;;;;;3.97;2.50;;;16.00;99.90;;;;;;4955158;28;20844;-85
2022/09/09 02:06:19;;;;;;;1317.07;124.67;;;16.10;99.90;;;;;;4956801;28;20451;-85
2022/09/09 02:08:51;;;;;;;1.17;0.70;;;16.20;99.90;;;;;;4964874;28;20527;-84
2022/09/09 02:11:19;;;;;;;3.40;1.20;;;16.30;99.90;;;;;;4960684;28;20440;-83
2022/09/09 02:13:46;;;;;;;1.63;0.87;;;16.30;99.90;;;;;;4948428;28;20479;-86
2022/09/09 02:16:27;;;;;;;9.40;1.33;;;17.80;99.90;;;;;;4958703;28;20859;-87
2022/09/09 02:19:01;;;;;;;3.20;1.30;;;16.20;99.90;;;;;;4957400;28;20451;-83
2022/09/09 02:21:30;;;;;;;2.83;1.20;;;16.10;99.90;;;;;;4956297;28;20459;-87
2022/09/09 02:23:59;;;;;;;1.23;0.87;;;16.10;99.90;;;;;;4981936;28;20466;-83
2022/09/09 02:26:26;;;;;;;3.60;1.33;;;16.00;99.90;;;;;;4981884;28;20451;-85
2022/09/09 02:28:56;;;;;;;6.23;1.63;;;15.80;99.90;;;;;;4963354;28;20470;-84
2022/09/09 02:31:24;;;;;;;1.97;0.90;;;16.20;99.90;;;;;;4955229;28;20535;-84
2022/09/09 02:33:57;;;;;;;8.73;0.97;;;15.70;99.90;;;;;;4977233;28;20493;-85
2022/09/09 02:36:25;;;;;;;10.60;1.23;;;16.90;99.90;;;;;;4959835;28;20442;-85
2022/09/09 02:38:53;;;;;;;4.30;0.70;;;15.80;99.90;;;;;;4975268;28;20526;-86
2022/09/09 02:41:33;;;;;;;2.00;1.07;;;15.90;99.90;;;;;;4955267;28;20435;-86
2022/09/09 02:43:59;;;;;;;1.10;0.40;;;16.00;99.90;;;;;;4970208;28;20434;-83
2022/09/09 02:46:39;;;;;;;3.23;0.50;;;16.10;99.90;;;;;;4970911;28;20466;-87
2022/09/09 02:49:24;;;;;;;1.40;0.80;;;16.00;99.90;;;;;;4969773;28;20622;-84
2022/09/09 02:52:16;;;;;;;0.93;0.50;;;16.00;99.90;;;;;;4959245;28;20473;-87
2022/09/09 02:54:43;;;;;;;1.23;0.77;;;15.90;99.90;;;;;;4938552;28;20488;-86
2022/09/09 02:57:21;;;;;;;0.80;0.53;;;15.90;99.90;;;;;;4953738;28;20447;-85
2022/09/09 02:59:47;;;;;;;5.17;0.87;;;15.90;99.90;;;;;;4956327;28;21491;-85
2022/09/09 03:02:12;;;;;;;2.80;0.60;;;15.80;99.90;;;;;;4950452;28;20474;-84
2022/09/09 03:04:40;;;;;;;0.53;0.37;;;15.80;99.90;;;;;;4955518;28;20450;-84
2022/09/09 03:07:06;;;;;;;5.37;0.67;;;15.70;99.90;;;;;;4934167;28;22870;-86
2022/09/09 03:09:35;;;;;;;0.70;0.57;;;;;;;;;;4957220;28;20561;-85
2022/09/09 03:12:00;;;;;;;4.90;0.80;;;15.70;99.90;;;;;;4962271;28;20868;-84
2022/09/09 03:14:26;;;;;;;1.57;0.90;;;;;;;;;;4934947;28;20443;-87
2022/09/09 03:16:53;;;;;;;0.53;0.43;;;15.50;99.90;;;;;;4954503;28;20189;-85
2022/09/09 03:19:19;;;;;;;1.77;0.60;;;15.40;99.90;;;;;;4950344;28;20439;-86
2022/09/09 03:21:46;;;;;;;10.30;1.03;;;15.30;99.90;;;;;;4951867;28;21050;-87
2022/09/09 03:24:12;;;;;;;0.80;0.60;;;15.30;99.90;;;;;;4937704;28;21498;-88
2022/09/09 03:26:37;;;;;;;3.43;1.13;;;15.30;99.90;;;;;;4956810;28;20835;-87
2022/09/09 03:29:06;;;;;;;0.80;0.70;;;15.30;99.90;;;;;;4937241;28;20577;-86
2022/09/09 03:31:35;;;;;;;1.60;0.70;;;15.50;99.90;;;;;;4930717;28;20183;-86
2022/09/09 03:34:01;;;;;;;1.63;0.60;;;15.50;99.90;;;;;;4953936;28;20504;-87
2022/09/09 03:36:28;;;;;;;1.20;1.10;;;;;;;;;;4932380;28;22998;-88
2022/09/09 03:38:54;;;;;;;2.50;1.70;;;;;;;;;;4942086;28;20451;-85
2022/09/09 03:41:21;;;;;;;4.20;0.50;;;;;;;;;;4930567;28;20439;-87
2022/09/09 03:43:47;;;;;;;3.83;0.93;;;15.70;99.90;;;;;;4935975;28;20486;-85
2022/09/09 03:46:12;;;;;;;1.00;0.70;;;15.70;99.90;;;;;;4959602;28;20466;-86
2022/09/09 03:48:38;;;;;;;5.80;1.00;;;15.80;99.90;;;;;;4953222;28;20240;-84
2022/09/09 03:51:04;;;;;;;1.60;0.90;;;15.70;99.90;;;;;;4955273;28;20629;-85
2022/09/09 03:53:30;;;;;;;2.83;0.80;;;15.70;99.90;;;;;;4955355;28;20210;-84
2022/09/09 03:55:59;;;;;;;3.97;1.00;;;15.50;99.90;;;;;;4971599;28;20180;-85
2022/09/09 03:58:26;;;;;;;31.87;21.27;;;15.60;99.90;;;;;;4957123;28;20521;-84
2022/09/09 04:01:04;;;;;;;4.47;2.60;;;17.30;99.90;;;;;;4954716;28;20446;-84
2022/09/09 04:03:30;;;;;;;6.87;1.27;;;15.60;99.90;;;;;;4935249;28;20533;-86
2022/09/09 04:05:58;;;;;;;2.27;0.83;;;15.60;99.90;;;;;;4935289;28;20481;-87
2022/09/09 04:08:27;;;;;;;2.30;1.00;;;15.50;99.90;;;;;;4966759;28;20434;-85
2022/09/09 04:10:53;;;;;;;39.07;4.30;;;15.50;99.90;;;;;;4948048;28;20470;-85
2022/09/09 04:13:19;;;;;;;3.17;0.93;;;15.60;99.90;;;;;;4944682;28;20498;-85
2022/09/09 04:15:53;;;;;;;4.93;1.20;;;15.50;99.90;;;;;;4941650;28;20466;-86
2022/09/09 04:18:19;;;;;;;78.10;15.33;;;15.50;99.90;;;;;;4961532;28;20437;-84
2022/09/09 04:20:50;;;;;;;3.93;0.80;;;15.50;99.90;;;;;;4933843;28;20505;-85
2022/09/09 04:23:16;;;;;;;4.80;1.93;;;15.50;99.90;;;;;;4938544;28;20467;-86
2022/09/09 04:25:50;;;;;;;5.33;1.73;;;15.50;99.90;;;;;;4940659;28;20478;-84
2022/09/09 04:28:17;;;;;;;13.53;3.57;;;15.60;99.90;;;;;;4953174;28;20665;-85
2022/09/09 04:30:44;;;;;;;3.50;1.00;;;15.60;99.90;;;;;;4947839;28;20486;-86
2022/09/09 04:33:10;;;;;;;7.60;1.40;;;15.70;99.90;;;;;;4967942;28;20469;-86
2022/09/09 04:35:37;;;;;;;3.57;1.10;;;;;;;;;;4957854;28;20435;-86
2022/09/09 04:38:02;;;;;;;2.03;0.90;;;15.70;99.90;;;;;;4942687;28;21700;-85
2022/09/09 04:40:29;;;;;;;8.27;1.23;;;15.60;99.90;;;;;;4940968;28;20446;-86
2022/09/09 04:42:55;;;;;;;11.33;1.40;;;;;;;;;;4961979;28;20814;-87
2022/09/09 04:45:21;;;;;;;1.53;0.77;;;15.60;99.90;;;;;;4965582;28;20501;-87
2022/09/09 04:47:47;;;;;;;1.70;0.60;;;;;;;;;;4950932;28;22302;-86
2022/09/09 04:50:12;;;;;;;1.37;0.50;;;15.70;99.90;;;;;;4953849;28;20247;-86
2022/09/09 04:52:38;;;;;;;3.60;0.83;;;15.80;99.90;;;;;;4966366;28;20455;-87
2022/09/09 04:55:05;;;;;;;4.57;0.73;;;15.70;99.90;;;;;;4951900;28;20266;-86
2022/09/09 04:57:32;;;;;;;1.90;0.67;;;;;;;;;;4962992;28;20191;-85
2022/09/09 04:59:59;;;;;;;1.73;0.60;;;15.80;99.90;;;;;;4955698;28;20474;-86
2022/09/09 05:02:25;;;;;;;2.77;1.00;;;;;;;;;;4958720;28;20503;-88
2022/09/09 05:04:51;;;;;;;3.57;1.03;;;;;;;;;;4951856;28;20446;-88
2022/09/09 05:07:17;;;;;;;1.23;0.80;;;;;;;;;;4959062;28;20431;-85
2022/09/09 05:09:43;;;;;;;2.33;0.87;;;15.70;99.90;;;;;;4966232;28;21028;-88
2022/09/09 05:12:09;;;;;;;2.40;0.90;;;;;;;;;;4951482;28;20459;-86
2022/09/09 05:14:37;;;;;;;2.77;0.90;;;15.60;99.90;;;;;;4948388;28;20219;-87
2022/09/09 05:17:03;;;;;;;2.17;1.00;;;;;;;;;;4967306;28;20453;-84
2022/09/09 05:19:30;;;;;;;0.80;0.60;;;;;;;;;;4979447;28;20455;-85
2022/09/09 05:21:56;;;;;;;2.50;1.07;;;15.40;99.90;;;;;;4962126;28;20467;-88
2022/09/09 05:24:25;;;;;;;8.60;1.63;;;;;;;;;;4959052;28;21285;-88
2022/09/09 05:26:51;;;;;;;4.67;1.73;;;;;;;;;;4973678;28;20434;-87
2022/09/09 05:29:19;;;;;;;5.53;1.27;;;;;;;;;;4949833;28;20478;-88
2022/09/09 05:31:45;;;;;;;2.57;0.63;;;;;;;;;;4949259;28;20466;-87
2022/09/09 05:34:11;;;;;;;4.27;0.80;;;;;;;;;;4926369;28;20431;-85
2022/09/09 05:36:37;;;;;;;2.13;1.00;;;;;;;;;;4950123;28;20438;-85
2022/09/09 05:39:03;;;;;;;1.70;0.90;;;16.00;99.90;;;;;;4950880;28;20458;-84
2022/09/09 05:41:31;;;;;;;1.60;0.77;;;;;;;;;;4953346;28;20447;-85
2022/09/09 05:44:00;;;;;;;20.83;1.40;;;;;;;;;;4945255;28;20442;-87
2022/09/09 05:46:26;;;;;;;5.53;1.70;;;16.50;99.90;;;;;;4952125;28;20593;-88
2022/09/09 05:48:53;;;;;;;1.37;0.80;;;16.90;99.90;;;;;;4938911;28;22228;-84
2022/09/09 05:51:21;;;;;;;5.13;1.10;;;16.90;99.90;;;;;;4934932;28;20192;-86
2022/09/09 05:53:48;;;;;;;4.23;0.90;;;16.60;99.90;;;;;;4957927;28;20474;-86
2022/09/09 05:56:25;;;;;;;4.67;1.37;;;16.60;99.90;;;;;;4976460;28;20458;-88
2022/09/09 05:58:53;;;;;;;2.43;0.90;;;16.60;99.90;;;;;;4963970;28;20446;-86
2022/09/09 06:01:24;;;;;;;1.63;0.60;;;16.70;99.90;;;;;;4956339;28;20525;-85
2022/09/09 06:03:51;;;;;;;2.40;0.80;;;16.70;99.90;;;;;;4963270;28;20466;-85
2022/09/09 06:06:20;;;;;;;2.67;1.17;;;16.70;99.90;;;;;;4945702;28;20443;-85
2022/09/09 06:08:46;;;;;;;4.73;0.70;;;16.70;99.90;;;;;;4954017;28;20486;-85
2022/09/09 06:11:15;;;;;;;2.23;0.60;;;16.80;99.90;;;;;;4954525;28;21097;-85
2022/09/09 06:13:41;;;;;;;2.47;0.93;;;16.80;99.90;;;;;;4967353;28;20476;-87
2022/09/09 06:16:11;;;;;;;1.83;0.93;;;17.00;99.90;;;;;;4956226;28;20435;-86
2022/09/09 06:18:38;;;;;;;3.30;0.50;;;17.00;99.90;;;;;;4964905;28;20282;-87
2022/09/09 06:21:06;;;;;;;1.37;0.63;;;17.10;99.90;;;;;;4965407;28;20458;-85
2022/09/09 06:23:33;;;;;;;1.00;0.73;;;17.10;99.90;;;;;;4962537;28;20466;-86
2022/09/09 06:26:14;;;;;;;5.60;1.27;;;17.20;99.90;;;;;;4960294;28;20446;-85
2022/09/09 06:28:41;;;;;;;1.53;0.60;;;17.60;99.90;;;;;;4960037;28;20446;-84
2022/09/09 06:31:09;;;;;;;1.10;1.10;;;17.90;99.90;;;;;;4949802;28;20518;-84
2022/09/09 06:33:40;;;;;;;1.13;0.87;;;19.40;99.90;;;;;;4968433;28;20470;-83
2022/09/09 06:36:10;;;;;;;1.87;0.93;;;18.10;99.90;;;;;;4971219;28;20462;-84
2022/09/09 06:38:35;;;;;;;6.27;0.80;;;17.90;99.90;;;;;;4960315;28;20462;-83
2022/09/09 06:41:01;;;;;;;3.33;0.83;;;18.00;99.90;;;;;;4982492;28;20455;-86
2022/09/09 06:43:27;;;;;;;5.00;0.80;;;18.00;99.90;;;;;;4956731;28;20215;-87
2022/09/09 06:46:09;;;;;;;4.13;1.00;;;17.90;99.90;;;;;;4950809;28;20478;-84
2022/09/09 06:48:36;;;;;;;0.60;0.60;;;17.70;99.90;;;;;;4955395;28;20190;-86
2022/09/09 06:51:08;;;;;;;1.43;0.63;;;17.70;99.90;;;;;;4955745;28;20853;-86
2022/09/09 06:53:35;;;;;;;3.70;1.03;;;17.90;99.90;;;;;;4973261;28;20459;-87
2022/09/09 06:56:23;;;;;;;4.00;0.90;;;18.10;99.90;;;;;;4970887;28;20513;-86
2022/09/09 06:58:50;;;;;;;1.17;0.50;;;18.90;99.90;;;;;;4954855;28;20895;-88
2022/09/09 07:01:24;;;;;;;2.63;0.50;;;19.50;99.90;;;;;;4942539;28;20437;-87
2022/09/09 07:03:52;;;;;;;2.33;0.93;;;19.30;99.90;;;;;;4944975;28;20477;-86
2022/09/09 07:06:20;;;;;;;1.53;0.67;;;19.20;99.90;;;;;;4947091;28;20446;-87
2022/09/09 07:08:57;;;;;;;2.10;0.77;;;19.30;99.90;;;;;;4959381;28;20446;-86
2022/09/09 07:11:26;;;;;;;1.40;0.93;;;19.50;99.90;;;;;;4965268;28;20693;-86
2022/09/09 07:13:52;;;;;;;36.67;32.23;;;19.70;99.90;;;;;;4961583;28;20447;-85
2022/09/09 07:16:20;;;;;;;4.03;1.07;;;19.80;99.90;;;;;;4947617;28;20446;-87
2022/09/09 07:18:46;;;;;;;2.07;1.40;;;20.00;99.90;;;;;;4983780;28;20443;-85
2022/09/09 07:21:14;;;;;;;1.97;0.93;;;20.50;99.90;;;;;;4970937;28;20443;-86
2022/09/09 07:23:41;;;;;;;2.63;1.07;;;20.90;99.90;;;;;;4965578;28;20981;-86
2022/09/09 07:26:15;;;;;;;2.23;0.67;;;21.00;99.90;;;;;;4960386;28;20432;-86
2022/09/09 07:28:41;;;;;;;1.00;0.43;;;20.50;99.90;;;;;;4953567;28;20458;-85
2022/09/09 07:31:13;;;;;;;1.77;0.57;;;20.40;99.90;;;;;;4943693;28;20533;-86
2022/09/09 07:33:40;;;;;;;6.97;0.80;;;;;;;;;;4956792;28;20450;-85
2022/09/09 07:36:14;;;;;;;1.07;0.40;;;20.20;99.90;;;;;;4943188;28;20465;-87
2022/09/09 07:38:45;;;;;;;3.07;0.50;;;20.20;99.90;;;;;;4931708;28;20474;-86
2022/09/09 07:41:13;;;;;;;0.93;0.40;;;20.10;99.90;;;;;;4960184;28;20933;-86
2022/09/09 07:43:40;;;;;;;5.33;0.77;;;20.20;99.90;;;;;;4959526;28;20473;-86
2022/09/09 07:46:06;;;;;;;2.53;0.70;;;20.50;99.90;;;;;;4963528;28;20439;-86
2022/09/09 07:48:33;;;;;;;0.77;0.40;;;20.80;99.90;;;;;;4962357;28;20515;-86
2022/09/09 07:51:08;;;;;;;1.10;0.57;;;21.00;99.90;;;;;;4953863;28;20528;-86
2022/09/09 07:53:36;;;;;;;3.33;0.70;;;;;;;;;;4965544;28;20466;-87
2022/09/09 07:56:07;;;;;;;5.67;1.80;;;24.30;99.90;;;;;;4950192;28;20435;-87
2022/09/09 07:58:32;;;;;;;7.10;1.57;;;26.20;99.90;;;;;;4963170;28;20479;-85
2022/09/09 08:00:58;;;;;;;5.53;0.97;;;28.40;99.90;;;;;;4968073;28;20936;-88
2022/09/09 08:03:24;;;;;;;2.00;0.90;;;;;;;;;;4949352;28;20225;-86
2022/09/09 08:05:50;;;;;;;7.63;1.33;;;;;;;;;;4951595;28;20186;-88
2022/09/09 08:08:16;;;;;;;8.33;1.27;;;;;;;;;;4947493;28;20439;-86
2022/09/09 08:10:42;;;;;;;4.03;1.13;;;28.10;97.00;;;;;;4945679;28;20458;-87
2022/09/09 08:13:08;;;;;;;1.60;0.50;;;26.90;94.40;;;;;;4959086;28;20989;-87
2022/09/09 08:15:34;;;;;;;4.93;1.30;;;;;;;;;;4956344;28;20449;-84
2022/09/09 08:18:00;;;;;;;3.40;0.93;;;;;;;;;;4969756;28;20454;-87
2022/09/09 08:20:27;;;;;;;4.83;1.23;;;;;;;;;;4951092;28;20438;-86
2022/09/09 08:22:52;;;;;;;5.10;1.30;;;;;;;;;;4965808;28;20509;-86
2022/09/09 08:25:19;;;;;;;2.40;1.10;;;26.60;92.60;;;;;;4961157;28;20451;-86
2022/09/09 08:27:45;;;;;;;6.57;1.40;;;;;;;;;;4960843;28;20451;-87
2022/09/09 08:30:11;;;;;;;6.20;1.50;;;27.70;94.70;;;;;;4933103;28;20890;-85
2022/09/09 08:32:37;;;;;;;3.20;1.13;;;;;;;;;;4943753;28;20455;-87
2022/09/09 08:35:03;;;;;;;3.27;1.37;;;28.10;92.80;;;;;;4942873;28;20805;-88
2022/09/09 08:37:29;;;;;;;1.63;0.83;;;;;;;;;;4933722;28;20441;-88
2022/09/09 08:39:56;;;;;;;6.17;1.30;;;;;;;;;;4964454;28;20859;-89
2022/09/09 08:42:35;;;;;;;4.70;1.20;;;29.60;88.10;;;;;;4942020;28;20991;-89
2022/09/09 08:45:16;;;;;;;2.93;1.10;;;29.30;88.60;;;;;;4937677;28;20500;-86
2022/09/09 08:47:55;;;;;;;1.00;0.50;;;26.60;90.00;;;;;;4949975;28;20585;-84
2022/09/09 08:50:31;;;;;;;2.50;0.90;;;25.60;93.40;;;;;;4973658;28;20490;-86
2022/09/09 08:53:03;;;;;;;3.60;0.60;;;28.30;91.50;;;;;;4941626;28;20455;-86
2022/09/09 08:55:51;;;;;;;1.40;0.73;;;28.40;91.80;;;;;;4940277;28;20439;-87
2022/09/09 08:58:25;;;;;;;2.70;0.70;;;30.60;86.80;;;;;;4956719;28;20440;-86
2022/09/09 09:01:06;;;;;;;2.10;0.80;;;29.60;84.20;;;;;;4939043;28;20460;-87
2022/09/09 09:03:58;;;;;;;8.60;0.87;;;31.10;82.00;;;;;;4969871;28;20482;-89
2022/09/09 09:06:36;;;;;;;7.60;2.10;;;32.60;74.40;;;;;;4941729;28;21851;-87
2022/09/09 09:09:16;;;;;;;3.47;1.50;;;32.60;74.70;;;;;;4969629;28;20431;-87
2022/09/09 09:11:59;;;;;;;5.57;1.53;;;27.20;77.50;;;;;;4945548;28;20455;-87
2022/09/09 09:14:26;;;;;;;2.90;1.37;;;28.70;80.00;;;;;;4963290;28;20452;-88
2022/09/09 09:16:57;;;;;;;6.83;1.07;;;26.60;84.70;;;;;;4945751;28;20435;-89
2022/09/09 09:19:25;;;;;;;2.53;1.20;;;25.80;91.50;;;;;;4962910;28;20469;-85
2022/09/09 09:22:32;;;;;;;5.30;1.13;;;22.40;98.50;;;;;;4984127;28;20443;-86
2022/09/09 09:25:18;;;;;;;5.17;1.23;;;22.00;99.90;;;;;;4986407;28;20473;-86
2022/09/09 09:28:05;;;;;;;2.53;1.17;;;21.50;99.90;;;;;;4973961;28;20786;-86
2022/09/09 09:30:38;;;;;;;5.50;1.27;;;21.00;99.90;;;;;;4964388;28;20990;-88
2022/09/09 09:33:15;;;;;;;2.27;1.00;;;20.60;99.90;;;;;;4952372;28;20463;-87
2022/09/09 09:35:41;;;;;;;5.00;1.87;;;20.40;99.90;;;;;;4952941;28;20523;-85
2022/09/09 09:38:22;;;;;;;12.43;1.77;;;20.20;99.90;;;;;;4962114;28;20467;-86
2022/09/09 09:40:55;;;;;;;3.43;0.93;;;20.20;99.90;;;;;;4964821;28;20194;-86
2022/09/09 09:43:31;;;;;;;5.00;1.50;;;20.60;99.90;;;;;;4966242;28;20477;-85
2022/09/09 09:46:00;;;;;;;4.20;0.93;;;20.30;99.90;;;;;;4952363;28;20709;-84
2022/09/09 09:48:27;;;;;;;4.73;1.03;;;19.90;99.90;;;;;;4981575;28;20456;-85
2022/09/09 09:50:57;;;;;;;4.27;1.13;;;20.80;99.90;;;;;;4969505;28;20514;-85
2022/09/09 09:53:29;;;;;;;4.20;1.10;;;20.80;99.90;;;;;;4959249;28;20459;-88
2022/09/09 09:55:59;;;;;;;2.77;1.40;;;22.10;99.90;;;;;;4946704;28;20450;-88
2022/09/09 09:58:29;;;;;;;7.77;1.13;;;22.50;99.90;;;;;;4957699;28;20439;-87
2022/09/09 10:00:55;;;;;;;5.47;1.30;;;22.60;99.90;;;;;;4968082;28;20450;-88
2022/09/09 10:03:30;;;;;;;2.30;0.70;;;22.00;99.90;;;;;;4968749;28;20896;-88
2022/09/09 10:05:56;;;;;;;2.67;1.23;;;22.10;99.90;;;;;;4967466;28;20179;-87
2022/09/09 10:08:23;;;;;;;3.97;1.10;;;21.10;99.90;;;;;;4957104;28;20453;-87
2022/09/09 10:11:27;;;;;;;12.13;1.20;;;20.60;99.90;;;;;;4951214;28;20240;-88
2022/09/09 10:14:11;;;;;;;1.20;0.80;;;20.10;99.90;;;;;;4969235;28;21269;-87
2022/09/09 10:19:15;;;;;;;5.03;1.27;;;20.00;99.90;;;;;;4988035;28;20485;-87
2022/09/09 10:22:24;;;;;;;4.47;1.50;;;19.90;99.90;;;;;;4991811;28;21205;-87
2022/09/09 10:25:12;;;;;;;7.53;1.33;;;18.20;99.90;;;;;;4970196;28;20454;-86
2022/09/09 10:28:02;;;;;;;1.70;0.93;;;20.20;99.90;;;;;;4978555;28;20473;-85
2022/09/09 10:31:12;;;;;;;1.97;0.63;;;20.60;99.90;;;;;;4984087;28;20478;-89
2022/09/09 10:34:00;;;;;;;3.37;0.90;;;21.40;99.90;;;;;;4990220;28;20442;-86
2022/09/09 10:36:26;;;;;;;6.87;0.97;;;22.30;99.90;;;;;;4991218;28;21010;-86
2022/09/09 10:39:28;;;;;;;4.47;1.23;;;22.70;99.90;;;;;;4981025;28;20429;-87
2022/09/09 10:42:05;;;;;;;7.40;1.60;;;22.40;99.90;;;;;;4989147;28;20182;-85
2022/09/09 10:44:57;;;;;;;3.37;0.70;;;21.60;99.90;;;;;;4991934;28;20474;-88
2022/09/09 10:47:49;;;;;;;6.53;1.70;;;21.40;99.90;;;;;;4992493;28;20445;-87
2022/09/09 10:50:45;;;;;;;3.57;0.97;;;21.70;99.90;;;;;;4989551;28;20462;-87
2022/09/09 10:53:38;;;;;;;3.00;0.90;;;22.10;99.90;;;;;;4992290;28;20944;-88
2022/09/09 10:56:10;;;;;;;2.20;0.80;;;22.40;99.90;;;;;;4989781;28;20464;-89
2022/09/09 10:58:50;;;;;;;4.00;0.83;;;22.50;99.90;;;;;;4989565;28;20469;-85
2022/09/09 11:01:24;;;;;;;2.20;1.07;;;22.70;99.90;;;;;;4985433;28;20540;-85
2022/09/09 11:03:56;;;;;;;3.67;1.07;;;23.20;99.90;;;;;;4984095;28;20442;-87
2022/09/09 11:06:29;;;;;;;4.63;0.90;;;23.40;99.90;;;;;;4985806;28;20464;-87
2022/09/09 11:08:59;;;;;;;4.00;1.13;;;23.30;99.90;;;;;;4986759;28;20964;-86
2022/09/09 11:11:36;;;;;;;4.20;1.03;;;24.00;99.90;;;;;;4995014;28;20582;-86
2022/09/09 11:14:11;;;;;;;3.07;1.00;;;24.40;98.80;;;;;;4982693;28;20438;-84
2022/09/09 11:17:06;;;;;;;1.57;0.60;;;23.30;98.00;;;;;;4983648;28;21205;-84
2022/09/09 11:19:43;;;;;;;3.17;0.80;;;22.60;99.90;;;;;;4988435;28;20452;-85
2022/09/09 11:22:31;;;;;;;2.80;0.77;;;22.70;99.90;;;;;;4988444;28;20459;-86
2022/09/09 11:25:22;;;;;;;4.20;0.77;;;22.50;97.70;;;;;;4941199;28;20445;-85
2022/09/09 11:28:10;;;;;;;1.33;0.73;;;22.60;98.20;;;;;;4983996;28;20435;-89
2022/09/09 11:30:52;;;;;;;3.63;0.80;;;22.40;97.80;;;;;;4983487;28;20520;-85
2022/09/09 11:33:37;;;;;;;3.90;1.00;;;21.40;99.10;;;;;;4977508;28;20448;-84
2022/09/09 11:36:26;;;;;;;1.60;0.80;;;22.00;99.90;;;;;;4981586;28;20458;-87
2022/09/09 11:38:57;;;;;;;2.90;0.90;;;22.10;99.10;;;;;;4987305;28;20449;-86
2022/09/09 11:41:22;;;;;;;2.37;0.80;;;22.40;99.90;;;;;;4990091;28;21415;-85
2022/09/09 11:43:52;;;;;;;2.60;0.90;;;22.50;99.90;;;;;;4984972;28;20441;-85
2022/09/09 11:46:33;;;;;;;2.80;0.70;;;22.40;99.90;;;;;;4982535;28;20379;-84
2022/09/09 11:49:04;;;;;;;1.57;0.60;;;21.80;98.40;;;;;;4971605;28;20499;-86
2022/09/09 11:51:32;;;;;;;1.37;0.80;;;21.80;98.60;;;;;;4971839;28;20474;-84
2022/09/09 11:54:02;;;;;;;2.03;0.70;;;21.30;98.80;;;;;;4994951;28;20436;-86
2022/09/09 11:56:30;;;;;;;2.10;0.70;;;21.40;99.30;;;;;;4979740;28;20544;-86
2022/09/09 11:59:06;;;;;;;0.87;0.60;;;21.20;99.60;;;;;;4989424;28;20461;-87
2022/09/09 12:01:57;;;;;;;3.07;0.83;;;20.50;99.90;;;;;;4991098;28;20436;-87
2022/09/09 12:04:28;;;;;;;0.87;0.40;;;20.30;99.90;;;;;;4984181;28;20442;-86
2022/09/09 12:07:03;;;;;;;1.43;0.83;;;20.10;99.90;;;;;;4986656;28;20457;-87
2022/09/09 12:10:04;;;;;;;2.87;0.77;;;20.10;99.90;;;;;;4995431;28;20503;-87
2022/09/09 12:12:33;;;;;;;3.50;0.90;;;20.30;99.90;;;;;;4955355;28;21566;-86
2022/09/09 12:15:06;;;;;;;1.37;0.40;;;21.30;99.90;;;;;;4997688;28;20430;-87
2022/09/09 12:17:44;;;;;;;1.43;0.63;;;21.40;99.90;;;;;;4983186;28;20860;-87
2022/09/09 12:20:17;;;;;;;1.87;0.40;;;22.00;99.90;;;;;;4990418;28;20452;-86
2022/09/09 12:23:21;;;;;;;1.10;0.50;;;22.60;99.90;;;;;;4988155;28;20453;-87
2022/09/09 12:25:55;;;;;;;2.20;0.90;;;22.80;99.90;;;;;;4995200;28;20485;-87
2022/09/09 12:29:00;;;;;;;3.43;1.00;;;23.40;99.20;;;;;;4995156;28;20494;-86
2022/09/09 12:31:50;;;;;;;5.50;1.00;;;23.80;96.90;;;;;;4976697;28;20477;-85
2022/09/09 12:34:21;;;;;;;0.67;0.47;;;23.90;95.90;;;;;;4994477;28;20448;-86
2022/09/09 12:36:55;;;;;;;2.40;0.70;;;24.20;95.90;;;;;;4991949;28;20460;-86
2022/09/09 12:39:37;;;;;;;1.90;0.80;;;24.50;94.40;;;;;;4996842;28;20429;-85
2022/09/09 12:42:04;;;;;;;1.90;0.73;;;24.30;92.80;;;;;;4999252;28;20535;-85
2022/09/09 12:44:30;;;;;;;1.83;0.90;;;23.00;93.80;;;;;;4997106;28;20491;-88
2022/09/09 12:47:00;;;;;;;6.30;0.60;;;23.40;95.20;;;;;;4995450;28;20461;-86
2022/09/09 12:49:40;;;;;;;2.10;0.90;;;23.60;94.80;;;;;;4994440;28;20997;-85
2022/09/09 12:52:16;;;;;;;2.27;1.00;;;23.40;95.40;;;;;;4990346;28;20904;-85
2022/09/09 12:54:51;;;;;;;3.80;0.90;;;23.70;96.60;;;;;;4994961;28;20952;-86
2022/09/09 12:57:17;;;;;;;1.67;1.27;;;23.60;95.60;;;;;;4982944;28;20445;-85
2022/09/09 12:59:48;;;;;;;1.90;0.70;;;23.40;95.40;;;;;;4990075;28;20445;-86
2022/09/09 13:02:19;;;;;;;2.90;1.20;;;23.40;95.70;;;;;;4980146;28;20449;-85
2022/09/09 13:04:46;;;;;;;2.40;0.77;;;23.00;95.80;;;;;;4989586;28;20444;-86
2022/09/09 13:07:13;;;;;;;3.03;1.37;;;23.00;96.60;;;;;;4973793;28;20535;-87
2022/09/09 13:09:39;;;;;;;1.97;0.80;;;22.70;96.20;;;;;;4987464;28;20477;-86
2022/09/09 13:12:09;;;;;;;2.03;1.07;;;23.20;97.40;;;;;;4986570;28;20528;-86
2022/09/09 13:14:37;;;;;;;1.60;0.70;;;23.30;96.90;;;;;;4990251;28;21472;-86
2022/09/09 13:17:05;;;;;;;3.20;0.73;;;23.20;97.40;;;;;;4987401;28;21098;-87
2022/09/09 13:19:35;;;;;;;4.97;0.83;;;24.90;98.50;;;;;;4991057;28;20438;-85
2022/09/09 13:22:13;;;;;;;2.27;0.90;;;22.70;97.60;;;;;;4973714;28;20524;-86
2022/09/09 13:24:38;;;;;;;2.60;0.80;;;22.70;97.30;;;;;;4976314;28;20441;-87
2022/09/09 13:27:27;;;;;;;2.20;0.60;;;22.70;97.10;;;;;;4985043;28;20468;-87
2022/09/09 13:29:56;;;;;;;2.53;0.90;;;22.50;97.90;;;;;;4991543;28;20310;-87
2022/09/09 13:32:24;;;;;;;6.40;1.23;;;22.70;98.60;;;;;;4994823;28;20438;-87